createdAt,value
2023-12-03T00:01:24.817Z,1.13
2023-12-03T00:04:27.499Z,0.88
2023-12-03T00:07:30.630Z,1.08
2023-12-03T00:10:34.873Z,1.08
2023-12-03T00:13:37.575Z,1.08
2023-12-03T00:16:40.276Z,1.09
2023-12-03T00:19:43.036Z,1.10
2023-12-03T00:22:47.211Z,1.10
2023-12-03T00:25:51.172Z,1.07
2023-12-03T00:28:53.769Z,0.86
2023-12-03T00:31:56.360Z,1.02
2023-12-03T00:34:59.011Z,0.81
2023-12-03T00:38:01.659Z,0.99
2023-12-03T00:41:06.034Z,0.82
2023-12-03T00:44:08.660Z,0.91
2023-12-03T00:47:11.265Z,0.90
2023-12-03T00:50:14.055Z,0.89
2023-12-03T00:53:16.685Z,0.72
2023-12-03T00:56:20.715Z,0.88
2023-12-03T00:59:23.379Z,0.56
2023-12-03T01:02:25.999Z,0.81
2023-12-03T01:05:28.673Z,0.80
2023-12-03T01:08:31.361Z,0.77
2023-12-03T01:11:36.695Z,0.71
2023-12-03T01:14:39.582Z,0.67
2023-12-03T01:17:42.301Z,0.65
2023-12-03T01:20:45.068Z,0.48
2023-12-03T01:23:47.705Z,0.64
2023-12-03T01:26:51.673Z,0.61
2023-12-03T01:29:54.349Z,0.56
2023-12-03T01:32:57.013Z,0.54
2023-12-03T01:35:59.717Z,0.48
2023-12-03T01:39:02.496Z,0.49
2023-12-03T01:42:07.029Z,0.50
2023-12-03T01:45:10.177Z,0.51
2023-12-03T01:48:12.966Z,0.52
2023-12-03T01:51:15.906Z,0.56
2023-12-03T01:54:18.686Z,0.63
2023-12-03T01:57:22.781Z,0.70
2023-12-03T02:00:26.324Z,0.56
2023-12-03T02:03:29.073Z,0.82
2023-12-03T02:06:31.804Z,0.84
2023-12-03T02:09:34.472Z,0.82
2023-12-03T02:12:38.517Z,0.65
2023-12-03T02:15:41.174Z,0.67
2023-12-03T02:18:43.990Z,0.57
2023-12-03T02:21:46.719Z,0.49
2023-12-03T02:24:50.794Z,0.44
2023-12-03T02:27:53.490Z,0.37
2023-12-03T02:30:56.221Z,0.33
2023-12-03T02:34:01.017Z,0.31
2023-12-03T02:37:03.752Z,0.27
2023-12-03T02:40:09.530Z,0.25
2023-12-03T02:43:12.389Z,0.18
2023-12-03T02:46:15.097Z,0.13
2023-12-03T02:49:17.866Z,0.06
2023-12-03T02:52:20.626Z,0.01
2023-12-03T02:55:24.644Z,-0.02
2023-12-03T02:58:27.293Z,-0.04
2023-12-03T03:01:29.951Z,-0.09
2023-12-03T03:04:32.688Z,-0.12
2023-12-03T03:07:35.326Z,-0.15
2023-12-03T03:10:39.291Z,-0.21
2023-12-03T03:13:41.875Z,-0.24
2023-12-03T03:16:44.465Z,-0.27
2023-12-03T03:19:47.128Z,-0.28
2023-12-03T03:22:49.782Z,-0.25
2023-12-03T03:25:53.851Z,-0.26
2023-12-03T03:28:56.468Z,-0.27
2023-12-03T03:31:59.095Z,-0.31
2023-12-03T03:35:01.786Z,-0.32
2023-12-03T03:38:04.437Z,-0.33
2023-12-03T03:41:09.105Z,-0.31
2023-12-03T03:44:11.748Z,-0.33
2023-12-03T03:47:14.629Z,-0.35
2023-12-03T03:50:17.352Z,-0.37
2023-12-03T03:53:19.981Z,-0.39
2023-12-03T03:56:24.137Z,-0.57
2023-12-03T03:59:26.967Z,-0.46
2023-12-03T04:02:29.647Z,-0.46
2023-12-03T04:05:32.350Z,-0.47
2023-12-03T04:08:35.129Z,-0.49
2023-12-03T04:11:42.497Z,-0.48
2023-12-03T04:14:45.388Z,-0.51
2023-12-03T04:17:48.084Z,-0.53
2023-12-03T04:20:50.816Z,-0.75
2023-12-03T04:23:53.415Z,-0.53
2023-12-03T04:26:57.382Z,-0.54
2023-12-03T04:29:59.982Z,-0.53
2023-12-03T04:33:02.707Z,-0.52
2023-12-03T04:36:09.323Z,-0.50
2023-12-03T04:39:12.040Z,-0.58
2023-12-03T04:42:16.117Z,-0.48
2023-12-03T04:45:18.894Z,-0.50
2023-12-03T04:48:21.695Z,-0.58
2023-12-03T04:51:24.359Z,-0.65
2023-12-03T04:54:27.082Z,-0.68
2023-12-03T04:57:31.086Z,-0.73
2023-12-03T05:00:33.926Z,-0.77
2023-12-03T05:03:36.661Z,-0.85
2023-12-03T05:06:39.422Z,-0.84
2023-12-03T05:09:42.198Z,-0.87
2023-12-03T05:12:46.218Z,-0.90
2023-12-03T05:15:48.938Z,-0.91
2023-12-03T05:18:51.780Z,-0.91
2023-12-03T05:21:54.463Z,-0.91
2023-12-03T05:24:57.360Z,-0.92
2023-12-03T05:28:01.323Z,-0.91
2023-12-03T05:31:05.768Z,-0.91
2023-12-03T05:34:08.458Z,-0.94
2023-12-03T05:37:11.471Z,-0.96
2023-12-03T05:40:14.134Z,-0.99
2023-12-03T05:43:18.241Z,-1.16
2023-12-03T05:46:20.946Z,-1.08
2023-12-03T05:49:23.785Z,-1.05
2023-12-03T05:52:26.483Z,-1.07
2023-12-03T05:55:29.068Z,-1.09
2023-12-03T05:58:33.048Z,-1.12
2023-12-03T06:01:35.743Z,-1.40
2023-12-03T06:04:38.448Z,-1.32
2023-12-03T06:07:41.107Z,-1.22
2023-12-03T06:10:45.511Z,-1.19
2023-12-03T06:13:51.038Z,-1.23
2023-12-03T06:16:53.699Z,-1.28
2023-12-03T06:19:56.376Z,-1.30
2023-12-03T06:22:59.277Z,-1.32
2023-12-03T06:26:02.495Z,-1.33
2023-12-03T06:29:06.523Z,-1.34
2023-12-03T06:32:09.333Z,-1.40
2023-12-03T06:35:15.333Z,-1.37
2023-12-03T06:38:17.957Z,-1.40
2023-12-03T06:41:20.608Z,-1.58
2023-12-03T06:44:34.740Z,-1.44
2023-12-03T06:47:43.893Z,-1.41
2023-12-03T06:50:46.563Z,-1.48
2023-12-03T06:53:49.257Z,-1.41
2023-12-03T06:56:51.914Z,-1.45
2023-12-03T06:59:55.924Z,-1.40
2023-12-03T07:02:59.532Z,-1.39
2023-12-03T07:06:02.208Z,-1.39
2023-12-03T07:09:36.018Z,-1.40
2023-12-03T07:12:27.982Z,-1.42
2023-12-03T07:15:32.069Z,-1.44
2023-12-03T07:18:35.353Z,-1.43
2023-12-03T07:21:38.010Z,-1.48
2023-12-03T07:24:40.743Z,-1.43
2023-12-03T07:27:43.410Z,-1.44
2023-12-03T07:30:47.467Z,-1.52
2023-12-03T07:33:50.299Z,-1.48
2023-12-03T07:36:53.023Z,-1.45
2023-12-03T07:39:56.002Z,-1.45
2023-12-03T07:42:58.756Z,-1.43
2023-12-03T07:46:03.205Z,-1.45
2023-12-03T07:49:06.142Z,-1.45
2023-12-03T07:52:08.869Z,-1.45
2023-12-03T07:55:11.554Z,-1.53
2023-12-03T07:58:14.194Z,-1.49
2023-12-03T08:01:18.402Z,-1.50
2023-12-03T08:04:21.129Z,-1.54
2023-12-03T08:07:23.893Z,-1.52
2023-12-03T08:10:27.457Z,-1.50
2023-12-03T08:13:30.206Z,-1.50
2023-12-03T08:16:34.196Z,-1.48
2023-12-03T08:19:37.005Z,-1.47
2023-12-03T08:22:39.774Z,-1.62
2023-12-03T08:25:42.463Z,-1.46
2023-12-03T08:28:45.558Z,-1.47
2023-12-03T08:31:50.905Z,-1.45
2023-12-03T08:34:53.555Z,-1.44
2023-12-03T08:37:56.198Z,-1.43
2023-12-03T08:40:58.852Z,-1.45
2023-12-03T08:44:01.513Z,-1.53
2023-12-03T08:47:05.859Z,-1.36
2023-12-03T08:50:09.323Z,-1.29
2023-12-03T08:53:12.059Z,-1.25
2023-12-03T08:56:14.840Z,-1.34
2023-12-03T08:59:17.583Z,-1.11
2023-12-03T09:02:21.660Z,-1.10
2023-12-03T09:05:24.367Z,-1.05
2023-12-03T09:08:27.039Z,-1.09
2023-12-03T09:11:29.751Z,-0.88
2023-12-03T09:14:34.073Z,-0.87
2023-12-03T09:17:38.763Z,-0.89
2023-12-03T09:20:43.336Z,-0.91
2023-12-03T09:23:46.224Z,-0.99
2023-12-03T09:26:48.910Z,-1.04
2023-12-03T09:29:51.712Z,-0.93
2023-12-03T09:32:55.859Z,-0.93
2023-12-03T09:35:58.635Z,-0.94
2023-12-03T09:39:01.338Z,-0.93
2023-12-03T09:42:04.350Z,-0.91
2023-12-03T09:45:10.597Z,-0.92
2023-12-03T09:48:14.759Z,-0.87
2023-12-03T09:51:17.464Z,-1.01
2023-12-03T09:54:20.680Z,-0.85
2023-12-03T09:57:25.614Z,-0.91
2023-12-03T10:00:30.203Z,-0.87
2023-12-03T10:03:34.919Z,-0.86
2023-12-03T10:06:42.022Z,-0.98
2023-12-03T10:09:44.813Z,-0.85
2023-12-03T10:12:47.714Z,-0.98
2023-12-03T10:15:50.440Z,-0.87
2023-12-03T10:18:54.592Z,-0.82
2023-12-03T10:21:58.200Z,-0.80
2023-12-03T10:25:01.188Z,-0.79
2023-12-03T10:28:04.504Z,-0.81
2023-12-03T10:31:08.039Z,-0.84
2023-12-03T10:34:12.100Z,-0.82
2023-12-03T10:37:15.711Z,-0.83
2023-12-03T10:40:19.328Z,-0.86
2023-12-03T10:43:24.712Z,-0.80
2023-12-03T10:46:28.449Z,-0.84
2023-12-03T10:49:32.818Z,-0.82
2023-12-03T10:52:36.496Z,-0.80
2023-12-03T10:55:39.109Z,-1.08
2023-12-03T10:58:42.763Z,-0.77
2023-12-03T11:01:49.160Z,-0.77
2023-12-03T11:04:56.264Z,-0.73
2023-12-03T11:07:59.229Z,-0.70
2023-12-03T11:11:01.922Z,-0.68
2023-12-03T11:14:04.603Z,-0.66
2023-12-03T11:17:10.930Z,-0.69
2023-12-03T11:20:16.796Z,-0.59
2023-12-03T11:23:27.410Z,-0.54
2023-12-03T11:26:30.167Z,-0.54
2023-12-03T11:29:50.434Z,-0.44
2023-12-03T11:32:55.308Z,-0.41
2023-12-03T11:36:00.288Z,-0.41
2023-12-03T11:39:03.232Z,-0.29
2023-12-03T11:42:07.303Z,-0.20
2023-12-03T11:45:24.220Z,-0.14
2023-12-03T11:48:28.366Z,-0.08
2023-12-03T11:51:33.457Z,-0.20
2023-12-03T11:54:39.330Z,0.02
2023-12-03T11:57:42.419Z,0.18
2023-12-03T12:00:46.993Z,0.10
2023-12-03T12:03:49.754Z,0.24
2023-12-03T12:06:54.976Z,0.09
2023-12-03T12:09:57.744Z,0.24
2023-12-03T12:13:00.552Z,0.24
2023-12-03T12:16:03.563Z,0.22
2023-12-03T12:19:06.501Z,0.19
2023-12-03T12:22:10.633Z,0.17
2023-12-03T12:25:13.358Z,0.16
2023-12-03T12:28:16.029Z,-0.05
2023-12-03T12:31:20.963Z,0.09
2023-12-03T12:34:25.292Z,0.12
2023-12-03T12:37:40.150Z,0.09
2023-12-03T12:40:53.593Z,0.09
2023-12-03T12:43:56.842Z,0.09
2023-12-03T12:47:00.249Z,0.09
2023-12-03T12:50:03.078Z,0.09
2023-12-03T12:53:07.932Z,0.09
2023-12-03T12:56:11.662Z,0.09
2023-12-03T12:59:15.447Z,0.11
2023-12-03T13:02:21.704Z,0.10
2023-12-03T13:05:26.406Z,0.07
2023-12-03T13:08:30.797Z,0.10
2023-12-03T13:11:33.572Z,0.06
2023-12-03T13:14:36.804Z,-0.01
2023-12-03T13:17:46.854Z,0.05
2023-12-03T13:20:49.734Z,-0.00
2023-12-03T13:23:54.089Z,-0.01
2023-12-03T13:26:56.774Z,-0.01
2023-12-03T13:29:59.368Z,-0.02
2023-12-03T13:33:02.131Z,-0.08
2023-12-03T13:36:05.711Z,-0.04
2023-12-03T13:39:10.216Z,-0.09
2023-12-03T13:42:12.816Z,-0.11
2023-12-03T13:45:15.452Z,-0.08
2023-12-03T13:48:18.127Z,-0.10
2023-12-03T13:51:20.831Z,-0.10
2023-12-03T13:54:24.832Z,-0.12
2023-12-03T13:57:27.862Z,-0.11
2023-12-03T14:00:30.535Z,-0.12
2023-12-03T14:03:33.249Z,-0.12
2023-12-03T14:06:35.904Z,-0.11
2023-12-03T14:09:39.872Z,-0.10
2023-12-03T14:12:42.592Z,-0.09
2023-12-03T14:15:45.571Z,-0.10
2023-12-03T14:18:48.289Z,-0.10
2023-12-03T14:21:51.055Z,-0.06
2023-12-03T14:24:55.136Z,-0.04
2023-12-03T14:27:57.842Z,-0.02
2023-12-03T14:31:00.537Z,-0.01
2023-12-03T14:34:03.278Z,-0.00
2023-12-03T14:37:06.479Z,-0.00
2023-12-03T14:40:14.777Z,0.02
2023-12-03T14:43:17.666Z,0.01
2023-12-03T14:46:20.365Z,0.05
2023-12-03T14:49:23.086Z,-0.00
2023-12-03T14:52:26.180Z,0.05
2023-12-03T14:55:30.106Z,0.08
2023-12-03T14:58:32.865Z,0.01
2023-12-03T15:01:36.078Z,0.03
2023-12-03T15:04:42.448Z,0.04
2023-12-03T15:07:46.169Z,0.05
2023-12-03T15:10:50.223Z,0.09
2023-12-03T15:13:52.964Z,0.08
2023-12-03T15:16:55.721Z,0.09
2023-12-03T15:19:58.464Z,0.12
2023-12-03T15:23:01.530Z,0.10
2023-12-03T15:26:06.128Z,0.14
2023-12-03T15:29:08.781Z,0.13
2023-12-03T15:32:11.500Z,0.11
2023-12-03T15:35:14.304Z,0.09
2023-12-03T15:38:16.956Z,0.10
2023-12-03T15:41:21.590Z,0.11
2023-12-03T15:44:26.232Z,0.09
2023-12-03T15:47:29.733Z,0.04
2023-12-03T15:50:32.361Z,0.01
2023-12-03T15:53:35.918Z,-0.01
2023-12-03T15:56:39.857Z,-0.02
2023-12-03T15:59:42.619Z,-0.03
2023-12-03T16:02:45.327Z,-0.02
2023-12-03T16:05:48.058Z,-0.02
2023-12-03T16:08:51.113Z,-0.02
2023-12-03T16:11:57.006Z,-0.02
2023-12-03T16:15:00.182Z,-0.04
2023-12-03T16:18:03.077Z,-0.06
2023-12-03T16:21:06.170Z,-0.09
2023-12-03T16:24:09.194Z,-0.08
2023-12-03T16:27:13.238Z,-0.14
2023-12-03T16:30:17.262Z,-0.14
2023-12-03T16:33:19.890Z,-0.14
2023-12-03T16:36:22.666Z,-0.45
2023-12-03T16:39:25.409Z,-0.16
2023-12-03T16:42:30.682Z,-0.19
2023-12-03T16:45:33.801Z,-0.23
2023-12-03T16:48:36.595Z,-0.27
2023-12-03T16:51:40.237Z,-0.30
2023-12-03T16:54:44.253Z,-0.35
2023-12-03T16:57:48.327Z,-0.38
2023-12-03T17:00:51.237Z,-0.37
2023-12-03T17:03:54.010Z,-0.41
2023-12-03T17:06:56.789Z,-0.49
2023-12-03T17:09:59.557Z,-0.47
2023-12-03T17:13:04.307Z,-0.55
2023-12-03T17:16:07.966Z,-0.62
2023-12-03T17:19:10.778Z,-0.64
2023-12-03T17:22:13.533Z,-0.66
2023-12-03T17:25:16.354Z,-0.72
2023-12-03T17:28:20.364Z,-0.72
2023-12-03T17:31:22.951Z,-0.76
2023-12-03T17:34:25.655Z,-0.81
2023-12-03T17:37:28.344Z,-0.82
2023-12-03T17:40:30.992Z,-0.82
2023-12-03T17:43:35.764Z,-0.94
2023-12-03T17:46:38.376Z,-0.97
2023-12-03T17:49:41.058Z,-0.85
2023-12-03T17:52:43.773Z,-0.86
2023-12-03T17:55:46.491Z,-0.87
2023-12-03T17:58:50.482Z,-0.87
2023-12-03T18:01:53.233Z,-1.01
2023-12-03T18:04:57.924Z,-0.90
2023-12-03T18:08:00.540Z,-0.89
2023-12-03T18:11:03.352Z,-0.88
2023-12-03T18:14:07.439Z,-0.89
2023-12-03T18:17:10.059Z,-0.91
2023-12-03T18:20:14.176Z,-0.90
2023-12-03T18:23:16.831Z,-0.91
2023-12-03T18:26:19.772Z,-0.91
2023-12-03T18:29:23.728Z,-0.88
2023-12-03T18:32:29.482Z,-1.11
2023-12-03T18:35:33.362Z,-0.91
2023-12-03T18:38:36.082Z,-0.91
2023-12-03T18:41:38.791Z,-0.92
2023-12-03T18:44:42.792Z,-0.92
2023-12-03T18:47:45.576Z,-0.92
2023-12-03T18:50:51.005Z,-0.92
2023-12-03T18:53:53.653Z,-0.95
2023-12-03T18:56:56.331Z,-0.94
2023-12-03T19:00:01.411Z,-0.97
2023-12-03T19:03:04.454Z,-0.92
2023-12-03T19:06:07.763Z,-0.92
2023-12-03T19:09:10.374Z,-0.93
2023-12-03T19:12:12.995Z,-0.90
2023-12-03T19:15:17.220Z,-0.92
2023-12-03T19:18:19.886Z,-0.92
2023-12-03T19:21:22.605Z,-0.89
2023-12-03T19:24:25.266Z,-0.92
2023-12-03T19:27:27.920Z,-0.90
2023-12-03T19:30:31.953Z,-0.91
2023-12-03T19:33:34.714Z,-0.89
2023-12-03T19:36:37.621Z,-0.90
2023-12-03T19:39:40.364Z,-0.87
2023-12-03T19:42:43.248Z,-0.90
2023-12-03T19:45:47.314Z,-0.91
2023-12-03T19:48:50.200Z,-0.90
2023-12-03T19:51:52.949Z,-0.90
2023-12-03T19:54:55.708Z,-0.91
2023-12-03T19:57:58.373Z,-0.90
2023-12-03T20:01:02.836Z,-0.90
2023-12-03T20:04:05.789Z,-0.88
2023-12-03T20:07:08.636Z,-0.84
2023-12-03T20:10:11.482Z,-0.83
2023-12-03T20:13:14.203Z,-0.81
2023-12-03T20:16:18.257Z,-0.81
2023-12-03T20:19:21.518Z,-0.80
2023-12-03T20:22:24.280Z,-0.81
2023-12-03T20:25:26.892Z,-0.79
2023-12-03T20:28:29.971Z,-0.79
2023-12-03T20:31:34.710Z,-0.75
2023-12-03T20:34:37.385Z,-0.74
2023-12-03T20:37:40.076Z,-0.73
2023-12-03T20:40:43.180Z,-0.71
2023-12-03T20:43:46.024Z,-0.69
2023-12-03T20:46:49.979Z,-0.66
2023-12-03T20:49:52.710Z,-0.64
2023-12-03T20:52:55.388Z,-0.63
2023-12-03T20:55:58.045Z,-0.62
2023-12-03T20:59:00.691Z,-0.60
2023-12-03T21:02:05.725Z,-0.58
2023-12-03T21:05:08.989Z,-0.58
2023-12-03T21:08:11.652Z,-0.56
2023-12-03T21:11:19.618Z,-0.54
2023-12-03T21:14:22.308Z,-0.55
2023-12-03T21:17:26.344Z,-0.63
2023-12-03T21:20:29.084Z,-0.52
2023-12-03T21:23:31.683Z,-0.49
2023-12-03T21:26:34.611Z,-0.69
2023-12-03T21:29:37.271Z,-0.48
2023-12-03T21:32:41.349Z,-0.48
2023-12-03T21:35:44.876Z,-0.48
2023-12-03T21:38:47.567Z,-0.48
2023-12-03T21:41:51.391Z,-0.55
2023-12-03T21:44:54.007Z,-0.47
2023-12-03T21:51:00.592Z,-0.47
2023-12-03T21:54:03.612Z,-0.46
2023-12-03T21:57:06.309Z,-0.66
2023-12-03T22:00:11.211Z,-0.47
2023-12-03T22:03:15.267Z,-0.46
2023-12-03T22:06:17.993Z,-0.49
2023-12-03T22:09:20.775Z,-0.41
2023-12-03T22:12:23.411Z,-0.41
2023-12-03T22:15:26.016Z,-0.43
2023-12-03T22:18:30.353Z,-0.38
2023-12-03T22:21:33.198Z,-0.37
2023-12-03T22:24:35.886Z,-0.40
2023-12-03T22:27:38.566Z,-0.38
2023-12-03T22:30:41.278Z,-0.39
2023-12-03T22:33:45.323Z,-0.38
2023-12-03T22:36:48.005Z,-0.46
2023-12-03T22:39:50.690Z,-0.40
2023-12-03T22:42:53.406Z,-0.42
2023-12-03T22:45:56.148Z,-0.39
2023-12-03T22:49:00.271Z,-0.43
2023-12-03T22:52:03.042Z,-0.38
2023-12-03T22:55:06.572Z,-0.41
2023-12-03T22:58:09.313Z,-0.38
2023-12-03T23:01:12.085Z,-0.33
2023-12-03T23:04:16.359Z,-0.32
2023-12-03T23:07:19.169Z,-0.29
2023-12-03T23:10:21.842Z,-0.38
2023-12-03T23:13:24.582Z,-0.37
2023-12-03T23:16:27.880Z,-0.26
2023-12-03T23:19:32.128Z,-0.24
2023-12-03T23:22:34.866Z,-0.28
2023-12-03T23:25:37.571Z,-0.22
2023-12-03T23:28:40.235Z,-0.22
2023-12-03T23:31:42.913Z,-0.16
2023-12-03T23:34:46.964Z,-0.16
2023-12-03T23:37:49.608Z,-0.13
2023-12-03T23:40:52.313Z,-0.12
2023-12-03T23:43:55.039Z,-0.11
2023-12-03T23:46:57.689Z,-0.13
2023-12-03T23:50:01.947Z,-0.36
2023-12-03T23:53:04.599Z,-0.17
2023-12-03T23:56:08.131Z,-0.09
2023-12-03T23:59:10.755Z,-0.11
